Latest Weather Observations for Renmark Airport

IDS60801

Issued at 11:02 am CDT Saturday 31 January 2015 (issued every 30 minutes, with the page automatically refreshed every 10 minutes)

About weather observations | Map of weather stations | Latest weather observations for SA | Other Formats
Station Details ID: 024048 Name: RENMARK AERO Lat: -34.20 Lon: 140.68 Height: 31.5 m
Data from the previous 72 hours. | See also: Recent months at Renmark Airport
Date/Time
CDT
Temp
°C
App
Temp
°C
Dew
Point
Rel
Hum
%
Delta-T
°C
Wind Press
QNH
hPa
Press
MSL
hPa
Rain
since 9 am
mm
Dir
 
Spd
km/h
Gust
km/h
Spd
kts
Gust
kts
31/11:00am 21.2 17.4 7.4 41 7.1 SSW 17 26 9 14 1015.0 1014.9 0.0
31/10:30am 20.0 16.2 7.4 44 6.4 SSW 17 24 9 13 1015.1 1015.0 0.0
31/10:00am 19.2 15.9 7.9 48 5.8 SSE 15 20 8 11 1015.2 1015.1 0.0
31/09:30am 18.6 14.9 8.0 50 5.4 SSE 17 22 9 12 1014.9 1014.8 0.0
31/09:00am 17.7 14.0 8.0 53 4.9 SSE 17 24 9 13 1014.6 1014.5 0.0
31/08:30am 16.0 11.7 7.7 58 4.2 SSE 20 26 11 14 1014.8 1014.7 0.0
31/08:00am 14.9 10.7 7.5 61 3.7 S 19 26 10 14 1014.7 1014.6 0.0
31/07:30am 14.4 10.9 7.0 61 3.6 S 15 20 8 11 1014.6 1014.5 0.0
31/07:00am 13.6 10.3 6.5 62 3.4 S 13 19 7 10 1014.1 1014.0 0.0
31/06:30am 13.1 9.7 6.0 62 3.4 S 13 19 7 10 1013.6 1013.5 0.0
31/06:00am 13.5 9.7 5.9 60 3.6 S 15 20 8 11 1013.3 1013.2 0.0
31/05:30am 13.9 10.5 6.0 59 3.8 S 13 19 7 10 1012.9 1012.8 0.0
31/05:00am 14.4 10.6 6.0 57 4.0 SSE 15 20 8 11 1012.6 1012.5 0.0
31/04:30am 15.0 11.6 6.0 55 4.3 S 13 20 7 11 1012.5 1012.4 0.0
31/04:00am 15.6 11.9 6.3 54 4.5 S 15 22 8 12 1012.3 1012.2 0.0
31/03:30am 15.8 11.8 6.8 55 4.4 S 17 22 9 12 1012.1 1012.0 0.0
31/03:00am 16.5 12.2 7.2 54 4.6 S 19 28 10 15 1012.1 1012.0 0.0
31/02:30am 17.0 12.8 7.4 53 4.8 S 19 26 10 14 1012.1 1012.0 0.0
31/02:00am 17.5 13.7 7.5 52 5.0 S 17 24 9 13 1012.1 1012.0 0.0
31/01:30am 17.8 13.7 7.8 52 5.1 S 19 28 10 15 1012.1 1012.0 0.0
31/01:00am 18.3 14.0 8.0 51 5.3 SSW 20 30 11 16 1012.3 1012.2 0.0
31/12:30am 18.7 14.5 8.1 50 5.5 SSW 20 28 11 15 1012.5 1012.4 0.0
31/12:00am 19.4 14.8 8.1 48 5.8 SSW 22 32 12 17 1012.6 1012.5 0.0
 
Date/Time
CDT
Temp
°C
App
Temp
°C
Dew
Point
Rel
Hum
%
Delta-T
°C
Wind Press
QNH
hPa
Press
MSL
hPa
Rain
since 9 am
mm
Dir
 
Spd
km/h
Gust
km/h
Spd
kts
Gust
kts
30/11:30pm 20.1 15.4 7.8 45 6.3 SSW 22 33 12 18 1012.6 1012.5 0.0
30/11:00pm 20.9 15.3 7.2 41 7.0 SSW 26 39 14 21 1012.5 1012.4 0.0
30/10:30pm 21.6 16.2 6.3 37 7.7 SSW 24 32 13 17 1012.4 1012.3 0.0
30/10:00pm 21.6 17.5 -0.4 23 9.8 SSW 11 15 6 8 1012.1 1012.0 0.0
30/09:30pm 23.3 18.2 -1.6 19 11.0 S 15 20 8 11 1011.9 1011.8 0.0
30/09:00pm 23.8 18.8 -1.2 19 11.2 S 15 20 8 11 1011.7 1011.6 0.0
30/08:30pm 24.6 19.9 -2.0 17 11.8 S 13 19 7 10 1011.5 1011.4 0.0
30/08:00pm 26.2 20.7 -2.4 15 12.7 SSW 17 24 9 13 1011.2 1011.1 0.0
30/07:30pm 27.1 21.3 -1.7 15 13.1 S 19 24 10 13 1011.0 1010.9 0.0
30/07:00pm 27.6 21.5 -2.3 14 13.5 S 20 33 11 18 1010.7 1010.6 0.0
30/06:30pm 27.7 21.2 -2.2 14 13.5 S 22 32 12 17 1010.6 1010.5 0.0
30/06:00pm 28.0 22.3 -1.0 15 13.4 SSW 19 32 10 17 1010.7 1010.6 0.0
30/05:30pm 27.6 21.6 -1.3 15 13.3 S 20 37 11 20 1010.8 1010.7 0.0
30/05:00pm 28.3 23.1 0.1 16 13.3 S 17 32 9 17 1011.2 1011.1 0.0
30/04:30pm 28.0 22.2 -0.1 16 13.2 SSW 20 37 11 20 1011.4 1011.3 0.0
30/04:00pm 28.3 23.1 0.1 16 13.3 S 17 28 9 15 1011.7 1011.6 0.0
30/03:30pm 27.8 22.5 -0.3 16 13.2 S 17 33 9 18 1012.1 1012.0 0.0
30/03:00pm 27.1 22.4 0.8 18 12.5 SW 15 26 8 14 1012.5 1012.4 0.0
30/02:30pm 26.2 20.7 0.8 19 12.0 S 19 32 10 17 1013.0 1012.9 0.0
30/02:00pm 25.9 20.3 1.2 20 11.7 S 20 35 11 19 1013.4 1013.3 0.0
30/01:30pm 25.5 20.5 1.6 21 11.4 S 17 26 9 14 1014.0 1013.9 0.0
30/01:00pm 25.3 20.4 2.1 22 11.1 S 17 35 9 19 1014.4 1014.3 0.0
30/12:30pm 24.6 19.9 3.3 25 10.4 SSE 17 28 9 15 1014.9 1014.8 0.0
30/12:00pm 23.3 19.0 5.2 31 9.1 SSW 17 26 9 14 1015.2 1015.1 0.0
30/11:30am 23.6 19.7 5.5 31 9.1 SE 15 20 8 11 1015.5 1015.3 0.0
30/11:00am 22.3 18.6 6.1 35 8.2 SE 15 30 8 16 1015.8 1015.6 0.0
30/10:30am 21.1 17.8 6.2 38 7.5 SE 13 19 7 10 1016.0 1015.8 0.0
30/10:00am 20.1 16.8 6.4 41 6.9 SE 13 19 7 10 1016.4 1016.2 0.0
30/09:30am 18.5 14.1 6.7 46 5.9 SSE 19 28 10 15 1016.5 1016.3 0.0
30/09:00am 18.2 14.2 6.7 47 5.7 SE 17 22 9 12 1016.5 1016.3 0.0
30/08:30am 17.6 13.1 6.8 49 5.4 SE 20 26 11 14 1016.5 1016.3 0.0
30/08:00am 16.4 11.7 6.0 50 5.0 SE 20 26 11 14 1016.3 1016.1 0.0
30/07:30am 15.6 11.4 5.5 51 4.8 SSE 17 26 9 14 1015.9 1015.7 0.0
30/07:00am 14.9 11.0 5.4 53 4.5 SSE 15 17 8 9 1015.5 1015.3 0.0
30/06:30am 14.3 11.1 5.1 54 4.3 SSE 11 15 6 8 1015.1 1015.0 0.0
30/06:00am 15.1 11.6 5.3 52 4.6 SE 13 17 7 9 1014.7 1014.6 0.0
30/05:30am 15.5 11.8 4.5 48 5.1 SE 13 19 7 10 1014.4 1014.3 0.0
30/05:00am 16.3 12.1 4.0 44 5.7 SE 15 20 8 11 1014.2 1014.1 0.0
30/04:30am 16.8 12.2 3.5 41 6.1 SE 17 20 9 11 1014.0 1013.9 0.0
30/04:00am 17.2 12.4 2.8 38 6.6 SE 17 22 9 12 1013.9 1013.8 0.0
30/03:30am 17.4 13.3 2.2 36 6.9 SE 13 17 7 9 1013.8 1013.7 0.0
30/03:00am 17.8 14.0 1.7 34 7.2 SE 11 15 6 8 1013.8 1013.7 0.0
30/02:30am 18.0 14.2 1.9 34 7.3 SE 11 15 6 8 1013.7 1013.6 0.0
30/02:00am 18.4 14.6 1.9 33 7.5 SE 11 13 6 7 1013.8 1013.7 0.0
30/01:30am 19.4 15.5 1.4 30 8.1 SE 11 15 6 8 1013.6 1013.5 0.0
30/01:00am 19.9 15.7 1.4 29 8.4 SE 13 17 7 9 1013.7 1013.6 0.0
30/12:30am 20.4 16.1 1.3 28 8.7 ESE 13 17 7 9 1013.8 1013.7 0.0
30/12:00am 21.4 16.4 1.1 26 9.3 ESE 17 20 9 11 1013.8 1013.7 0.0
 
Date/Time
CDT
Temp
°C
App
Temp
°C
Dew
Point
Rel
Hum
%
Delta-T
°C
Wind Press
QNH
hPa
Press
MSL
hPa
Rain
since 9 am
mm
Dir
 
Spd
km/h
Gust
km/h
Spd
kts
Gust
kts
29/11:30pm 22.6 16.9 0.4 23 10.1 SE 20 28 11 15 1013.8 1013.7 0.0
29/11:00pm 22.5 17.3 0.4 23 10.1 SSE 17 22 9 12 1013.9 1013.8 0.0
29/10:30pm 22.5 17.2 -0.9 21 10.4 SSE 17 20 9 11 1013.9 1013.8 0.0
29/10:00pm 23.1 18.1 -1.1 20 10.7 SSE 15 20 8 11 1013.8 1013.7 0.0
29/09:30pm 23.3 18.6 -1.6 19 11.0 SSE 13 17 7 9 1013.5 1013.4 0.0
29/09:00pm 24.2 19.5 -1.6 18 11.5 SSE 13 15 7 8 1013.3 1013.2 0.0
29/08:30pm 25.8 21.1 -1.9 16 12.4 SSE 13 20 7 11 1013.1 1013.0 0.0
29/08:00pm 27.4 21.2 -3.4 13 13.6 SSE 20 24 11 13 1012.8 1012.7 0.0
29/07:30pm 28.3 21.3 -3.8 12 14.2 SSE 24 33 13 18 1012.7 1012.6 0.0
29/07:00pm 28.8 22.3 -2.3 13 14.1 SSE 22 32 12 17 1012.6 1012.5 0.0
29/06:30pm 29.4 22.6 -1.9 13 14.4 SSE 24 35 13 19 1012.5 1012.4 0.0
29/06:00pm 29.5 22.6 -2.9 12 14.7 SSE 24 32 13 17 1012.5 1012.4 0.0
29/05:30pm 29.8 22.9 -2.6 12 14.8 SSE 24 39 13 21 1012.5 1012.4 0.0
29/05:00pm 29.2 22.6 -3.1 12 14.5 SSE 22 35 12 19 1012.8 1012.7 0.0
29/04:30pm 29.8 22.9 -2.6 12 14.8 SE 24 39 13 21 1013.1 1013.0 0.0
29/04:00pm 29.5 22.2 -2.9 12 14.7 SSE 26 39 14 21 1013.5 1013.4 0.0
29/03:30pm 28.9 21.9 -3.3 12 14.4 S 24 37 13 20 1013.8 1013.7 0.0
29/03:00pm 28.6 21.2 -3.6 12 14.3 SE 26 41 14 22 1014.2 1014.1 0.0
29/02:30pm 29.2 22.2 -3.1 12 14.5 SSE 24 33 13 18 1014.5 1014.4 0.0
29/02:00pm 28.4 21.8 -0.7 15 13.6 SE 24 41 13 22 1014.8 1014.7 0.0
29/01:30pm 27.4 21.9 1.8 19 12.4 SSE 20 35 11 19 1015.5 1015.3 0.0
29/01:00pm 27.5 22.8 3.2 21 12.1 S 17 30 9 16 1015.8 1015.6 0.0
29/12:30pm 25.8 20.6 3.7 24 10.9 SSE 20 28 11 15 1016.2 1016.0 0.0
29/12:00pm 24.8 20.5 5.1 28 9.9 SSE 17 28 9 15 1016.5 1016.3 0.0
29/11:30am 25.0 20.7 5.2 28 10.0 SE 17 26 9 14 1016.8 1016.6 0.0
29/11:00am 24.1 19.9 5.9 31 9.3 SE 17 28 9 15 1016.9 1016.7 0.0
29/10:30am 22.7 18.2 6.0 34 8.4 ESE 19 28 10 15 1017.0 1016.8 0.0
29/10:00am 21.2 16.5 5.9 37 7.7 ESE 20 32 11 17 1017.1 1016.9 0.0
29/09:30am 20.4 14.9 6.0 39 7.2 ESE 24 33 13 18 1017.1 1016.9 0.0
29/09:00am 19.4 14.0 6.5 43 6.4 ESE 24 32 13 17 1017.2 1017.0 0.0
29/08:30am 18.7 13.3 6.5 45 6.1 SE 24 32 13 17 1017.1 1016.9 0.0
29/08:00am 17.8 13.5 7.0 49 5.4 SE 19 30 10 16 1016.9 1016.7 0.0
29/07:30am 17.1 12.2 6.9 51 5.1 SE 22 32 12 17 1016.6 1016.4 0.0
29/07:00am 16.4 12.5 7.1 54 4.6 SSE 17 22 9 12 1016.2 1016.0 0.0
29/06:30am 16.1 11.8 6.8 54 4.6 SE 19 24 10 13 1015.7 1015.5 0.0
29/06:00am 16.6 12.1 7.0 53 4.8 SE 20 26 11 14 1015.1 1015.0 0.0
29/05:30am 17.1 12.2 6.9 51 5.1 SE 22 30 12 16 1014.8 1014.7 0.0
29/05:00am 17.6 13.1 7.1 50 5.3 SE 20 30 11 16 1014.6 1014.5 0.0
29/04:30am 18.2 14.0 7.3 49 5.5 SE 19 28 10 15 1014.3 1014.2 0.0
29/04:00am 18.7 14.9 7.5 48 5.7 SSE 17 22 9 12 1014.2 1014.1 0.0
29/03:30am 19.3 15.5 7.4 46 6.1 SE 17 24 9 13 1013.9 1013.8 0.0
29/03:00am 20.0 14.5 7.4 44 6.4 SE 26 35 14 19 1013.7 1013.6 0.0
29/02:30am 20.6 15.3 6.9 41 7.0 SE 24 35 13 19 1013.6 1013.5 0.0
29/02:00am 20.9 16.1 5.7 37 7.6 SE 20 26 11 14 1013.8 1013.7 0.0
29/01:30am 20.3 15.6 3.1 32 8.1 SE 17 24 9 13 1013.9 1013.8 0.0
29/01:00am 20.8 15.5 2.1 29 8.7 SSE 19 24 10 13 1013.9 1013.8 0.0
29/12:30am 21.5 16.1 1.2 26 9.3 SSE 19 26 10 14 1014.0 1013.9 0.0
29/12:00am 22.4 16.9 0.3 23 10.0 SSE 19 24 10 13 1013.9 1013.8 0.0
 
Date/Time
CDT
Temp
°C
App
Temp
°C
Dew
Point
Rel
Hum
%
Delta-T
°C
Wind Press
QNH
hPa
Press
MSL
hPa
Rain
since 9 am
mm
Dir
 
Spd
km/h
Gust
km/h
Spd
kts
Gust
kts
28/11:30pm 23.1 17.8 -0.4 21 10.6 SSE 17 28 9 15 1013.9 1013.8 0.0
28/11:00pm 23.5 18.1 -1.4 19 11.0 S 17 22 9 12 1013.8 1013.7 0.0
28/10:30pm 23.8 18.8 -1.2 19 11.1 S 15 20 8 11 1013.7 1013.6 0.0
28/10:00pm 24.4 19.5 -0.7 19 11.4 S 15 20 8 11 1013.5 1013.4 0.0
28/09:30pm 24.8 20.3 -0.4 19 11.5 S 13 19 7 10 1013.2 1013.1 0.0
28/09:00pm 25.9 20.5 -1.0 17 12.2 S 17 24 9 13 1012.9 1012.8 0.0
28/08:30pm 26.8 21.5 -0.3 17 12.6 SSE 17 24 9 13 1012.7 1012.6 0.0
28/08:00pm 28.1 21.9 -0.1 16 13.3 SSE 22 32 12 17 1012.4 1012.3 0.0
28/07:30pm 29.0 22.9 0.7 16 13.6 SSE 22 33 12 18 1012.0 1011.9 0.0
28/07:00pm 29.5 23.7 0.2 15 14.0 SSE 20 30 11 16 1011.8 1011.7 0.0
28/06:30pm 29.6 22.7 0.2 15 14.1 SSE 26 35 14 19 1011.9 1011.8 0.0
28/06:00pm 30.1 23.6 0.6 15 14.3 SSE 24 35 13 19 1011.9 1011.8 0.0
28/05:30pm 29.9 24.2 0.5 15 14.2 SSE 20 28 11 15 1012.0 1011.9 0.0
28/05:00pm 29.1 22.5 -0.1 15 13.8 SE 24 37 13 20 1012.3 1012.2 0.0
28/04:30pm 29.0 22.8 -0.2 15 13.8 SE 22 32 12 17 1012.5 1012.4 0.0
28/04:00pm 28.4 21.9 0.2 16 13.4 S 24 35 13 19 1012.7 1012.6 0.0
28/03:30pm 29.2 23.5 0.8 16 13.7 SSE 20 35 11 19 1013.0 1012.9 0.0
28/03:00pm 27.8 21.3 0.5 17 13.0 S 24 37 13 20 1013.4 1013.3 0.0
28/02:30pm 27.3 21.7 0.9 18 12.6 S 20 32 11 17 1013.6 1013.5 0.0
28/02:00pm 26.6 21.0 1.1 19 12.1 SSE 20 30 11 16 1013.9 1013.8 0.0
28/01:30pm 26.1 19.5 2.1 21 11.6 S 26 44 14 24 1014.4 1014.3 0.0
28/01:00pm 24.5 18.9 3.2 25 10.4 S 22 35 12 19 1014.9 1014.8 0.0
28/12:30pm 23.6 18.6 4.5 29 9.5 SSW 20 33 11 18 1015.2 1015.1 0.0
28/12:00pm 22.4 17.4 4.5 31 8.8 S 20 30 11 16 1015.8 1015.6 0.0
28/11:30am 22.0 17.1 5.0 33 8.4 S 20 32 11 17 1015.9 1015.7 0.0

Other Formats:

Comma delimited format used in spreadsheet applications
http://www.bom.gov.au/fwo/IDS60801/IDS60801.95687.axf

JavaScript Object Notation format (JSON) in row-major order
http://www.bom.gov.au/fwo/IDS60801/IDS60801.95687.json